Weather History for Delaware, OH

Change the Weather History Date:

Monday, October 28, 2013

  Actual Average Record
Temperature  
Mean Temperature 42 °F -  
Max Temperature 59 °F 60 °F 79 °F (1984)
Min Temperature 26 °F 34 °F 18 °F (1976)
Degree Days  
Heating Degree Days 22    
Growing Degree Days 0 (Base 50)    
Moisture  
Dew Point 30 °F    
Average Humidity 72    
Maximum Humidity 100    
Minimum Humidity 31    
Precipitation  
Precipitation 0.00 in - - ()
Sea Level Pressure  
Sea Level Pressure 30.22 in    
Wind  
Wind Speed 1 mph (NNE)    
Max Wind Speed 8 mph    
Max Gust Speed -    
Visibility 10 miles    
Events      
Averages and records for this station are not official NWS values.
T = Trace of Precipitation, MM = Missing Value Source: NWS Daily Summary

Daily Weather History Graph

Daily Weather History Graph

Search for Another Location

Airport:

Trip Planner

Search our weather history database for the weather conditions in past years. The results will help you decide how hot, cold, wet, or windy it might be!

Date:

Astronomy

Oct. 28, 2013 Rise Set
Actual Time 7:57 AM EDT 6:34 PM EDT
Civil Twilight 7:29 AM EDT 7:02 PM EDT
Nautical Twilight 6:57 AM EDT 7:34 PM EDT
Astronomical Twilight 6:26 AM EDT 8:05 PM EDT
Moon 1:49 AM EDT (10/28) 3:16 PM EDT (10/28)
Length of Visible Light 11h 32m
Length of Day
10h 36m
Waning Crescent, 34% of the Moon is Illuminated
Oct 28
Waning Crescent
Nov 3
New
Nov 10
First Quarter
Nov 17
Full
Nov 25
Last Quarter

Hourly Weather History & Observations

Time (EDT) Temp. Windchill Dew Point Humidity Pressure Visibility Wind Dir Wind Speed Gust Speed Precip Events Conditions
12:14 AM 30.2 °F - 28.4 °F 93% 30.10 in 10.0 mi Calm Calm - N/A   Clear
12:34 AM 30.2 °F - 28.4 °F 93% 30.10 in 10.0 mi Calm Calm - N/A   Clear
12:54 AM 30.2 °F - 28.4 °F 93% 30.10 in 10.0 mi Calm Calm - N/A   Clear
1:14 AM 28.4 °F - 28.4 °F 100% 30.10 in 10.0 mi Calm Calm - N/A   Clear
1:34 AM 28.4 °F - 28.4 °F 100% 30.11 in 10.0 mi Calm Calm - N/A   Clear
1:54 AM 28.4 °F - 28.4 °F 100% 30.11 in 10.0 mi Calm Calm - N/A   Clear
2:14 AM 28.4 °F - 28.4 °F 100% 30.11 in 10.0 mi Calm Calm - N/A   Clear
2:34 AM 28.4 °F - 28.4 °F 100% 30.12 in 10.0 mi Calm Calm - N/A   Clear
2:54 AM 28.4 °F - 28.4 °F 100% 30.12 in 10.0 mi Calm Calm - N/A   Clear
3:14 AM 28.4 °F - 26.6 °F 93% 30.12 in 10.0 mi Calm Calm - N/A   Clear
3:34 AM 28.4 °F - 26.6 °F 93% 30.13 in 10.0 mi Calm Calm - N/A   Clear
3:55 AM 28.4 °F - 26.6 °F 93% 30.13 in 10.0 mi Calm Calm - N/A   Clear
4:14 AM 28.4 °F - 26.6 °F 93% 30.14 in 10.0 mi Calm Calm - N/A   Clear
4:34 AM 28.4 °F - 26.6 °F 93% 30.14 in 10.0 mi Calm Calm - N/A   Clear
4:55 AM 28.4 °F - 26.6 °F 93% 30.15 in 10.0 mi Calm Calm - N/A   Clear
5:14 AM 28.4 °F - 26.6 °F 93% 30.15 in 10.0 mi Calm Calm - N/A   Clear
5:34 AM 26.6 °F - 26.6 °F 100% 30.16 in 10.0 mi Calm Calm - N/A   Clear
5:55 AM 28.4 °F - 26.6 °F 93% 30.17 in 10.0 mi Calm Calm - N/A   Clear
6:14 AM 26.6 °F - 26.6 °F 100% 30.17 in 10.0 mi Calm Calm - N/A   Clear
6:34 AM 26.6 °F - 26.6 °F 100% 30.18 in 10.0 mi Calm Calm - N/A   Clear
6:55 AM 26.6 °F - 24.8 °F 93% 30.18 in 10.0 mi Calm Calm - N/A   Clear
7:14 AM 26.6 °F - 24.8 °F 93% 30.18 in 10.0 mi Calm Calm - N/A   Clear
7:34 AM 26.6 °F - 24.8 °F 93% 30.18 in 10.0 mi Calm Calm - N/A   Clear
7:55 AM 26.6 °F - 26.6 °F 100% 30.18 in 7.0 mi Calm Calm - N/A   Clear
8:14 AM 26.6 °F - 26.6 °F 100% 30.20 in 10.0 mi Calm Calm - N/A   Clear
8:34 AM 30.2 °F 26.7 °F 28.4 °F 93% 30.20 in 7.0 mi SSE 3.5 mph - N/A   Clear
8:55 AM 32.0 °F - 32.0 °F 100% 30.21 in 7.0 mi Calm Calm - N/A   Clear
9:14 AM 33.8 °F - 33.8 °F 100% 30.22 in 7.0 mi Calm Calm - N/A   Clear
9:34 AM 37.4 °F - 35.6 °F 93% 30.23 in 10.0 mi Calm Calm - N/A   Clear
9:55 AM 39.2 °F - 35.6 °F 87% 30.23 in 10.0 mi Calm Calm - N/A   Clear
10:14 AM 41.0 °F - 35.6 °F 81% 30.24 in 10.0 mi Calm Calm - N/A   Clear
10:34 AM 44.6 °F - 33.8 °F 66% 30.24 in 10.0 mi Calm Calm - N/A   Clear
10:55 AM 46.4 °F - 32.0 °F 57% 30.24 in 10.0 mi Calm Calm - N/A   Clear
11:14 AM 50.0 °F - 32.0 °F 50% 30.24 in 10.0 mi Calm Calm - N/A   Clear
11:34 AM 51.8 °F - 32.0 °F 47% 30.25 in 10.0 mi Calm Calm - N/A   Clear
11:55 AM 53.6 °F - 32.0 °F 44% 30.25 in 10.0 mi Calm Calm - N/A   Clear
12:14 PM 51.8 °F - 30.2 °F 44% 30.25 in 10.0 mi Calm Calm - N/A   Clear
12:34 PM 53.6 °F - 28.4 °F 38% 30.26 in 10.0 mi Calm Calm - N/A   Clear
12:55 PM 53.6 °F - 28.4 °F 38% 30.25 in 10.0 mi SW 3.5 mph - N/A   Clear
1:14 PM 55.4 °F - 28.4 °F 36% 30.25 in 10.0 mi Calm Calm - N/A   Clear
1:34 PM 55.4 °F - 28.4 °F 36% 30.25 in 10.0 mi Calm Calm - N/A   Clear
1:54 PM 55.4 °F - 28.4 °F 36% 30.24 in 10.0 mi Calm Calm - N/A   Clear
2:14 PM 57.2 °F - 28.4 °F 33% 30.24 in 10.0 mi South 3.5 mph - N/A   Clear
2:34 PM 55.4 °F - 28.4 °F 36% 30.23 in 10.0 mi Calm Calm - N/A   Clear
2:55 PM 57.2 °F - 30.2 °F 36% 30.23 in 10.0 mi Calm Calm - N/A   Clear
3:14 PM 57.2 °F - 28.4 °F 33% 30.23 in 10.0 mi Calm Calm - N/A   Scattered Clouds
3:34 PM 59.0 °F - 28.4 °F 31% 30.23 in 10.0 mi Calm Calm - N/A   Scattered Clouds
3:55 PM 59.0 °F - 30.2 °F 34% 30.23 in 10.0 mi WSW 4.6 mph - N/A   Mostly Cloudy
4:14 PM 59.0 °F - 28.4 °F 31% 30.23 in 10.0 mi WSW 4.6 mph - N/A   Scattered Clouds
4:34 PM 55.4 °F - 28.4 °F 36% 30.23 in 10.0 mi Calm Calm - N/A   Clear
4:55 PM 57.2 °F - 28.4 °F 33% 30.24 in 10.0 mi Calm Calm - N/A   Clear
5:14 PM 55.4 °F - 28.4 °F 36% 30.24 in 10.0 mi Calm Calm - N/A   Scattered Clouds
5:34 PM 51.8 °F - 30.2 °F 44% 30.24 in 10.0 mi Calm Calm - N/A   Clear
5:55 PM 51.8 °F - 30.2 °F 44% 30.24 in 10.0 mi NNW 4.6 mph - N/A   Clear
6:14 PM 51.8 °F - 30.2 °F 44% 30.24 in 10.0 mi North 3.5 mph - N/A   Clear
6:35 PM 50.0 °F - 32.0 °F 50% 30.24 in 10.0 mi North 4.6 mph - N/A   Clear
6:54 PM 46.4 °F 44.3 °F 30.2 °F 53% 30.25 in 10.0 mi North 4.6 mph - N/A   Clear
7:14 PM 44.6 °F 43.1 °F 32.0 °F 61% 30.26 in 10.0 mi NNE 3.5 mph - N/A   Clear
7:35 PM 41.0 °F 39.0 °F 32.0 °F 70% 30.27 in 10.0 mi NNE 3.5 mph - N/A   Clear
7:54 PM 42.8 °F 41.1 °F 32.0 °F 66% 30.27 in 10.0 mi NNE 3.5 mph - N/A   Clear
8:14 PM 37.4 °F 34.9 °F 32.0 °F 81% 30.27 in 10.0 mi North 3.5 mph - N/A   Clear
8:35 PM 44.6 °F 40.7 °F 32.0 °F 61% 30.28 in 10.0 mi NNE 6.9 mph - N/A   Clear
8:54 PM 44.6 °F 40.2 °F 35.6 °F 71% 30.28 in 10.0 mi NNE 8.1 mph - N/A   Clear
9:14 PM 44.6 °F 40.7 °F 35.6 °F 71% 30.28 in 10.0 mi NE 6.9 mph - N/A   Clear
9:35 PM 42.8 °F 39.3 °F 35.6 °F 76% 30.29 in 10.0 mi NNE 5.8 mph - N/A   Clear
9:54 PM 42.8 °F 38.6 °F 35.6 °F 76% 30.30 in 10.0 mi NNE 6.9 mph - N/A   Clear
10:14 PM 42.8 °F 40.1 °F 35.6 °F 76% 30.30 in 10.0 mi NE 4.6 mph - N/A   Clear
10:35 PM 41.0 °F 38.0 °F 35.6 °F 81% 30.30 in 10.0 mi NE 4.6 mph - N/A   Clear
10:54 PM 41.0 °F 39.0 °F 35.6 °F 81% 30.31 in 10.0 mi NE 3.5 mph - N/A   Clear
11:14 PM 35.6 °F 32.8 °F 32.0 °F 87% 30.32 in 10.0 mi North 3.5 mph - N/A   Clear
11:34 PM 35.6 °F - 32.0 °F 87% 30.32 in 10.0 mi Calm Calm - N/A   Clear
11:54 PM 35.6 °F - 33.8 °F 93% 30.32 in 7.0 mi Calm Calm - N/A   Clear